createdAt,value
2022-11-29T00:03:06.061Z,0.49
2022-11-29T00:08:09.621Z,0.43
2022-11-29T00:13:13.050Z,0.38
2022-11-29T00:18:16.513Z,0.41
2022-11-29T00:23:19.820Z,0.36
2022-11-29T00:28:23.224Z,0.27
2022-11-29T00:33:27.134Z,0.24
2022-11-29T00:38:30.520Z,0.21
2022-11-29T00:43:34.369Z,0.19
2022-11-29T00:48:37.713Z,0.21
2022-11-29T00:53:41.133Z,0.21
2022-11-29T00:58:44.884Z,0.29
2022-11-29T01:03:48.753Z,0.28
2022-11-29T01:08:51.927Z,0.27
2022-11-29T01:13:58.301Z,0.24
2022-11-29T01:19:01.935Z,0.26
2022-11-29T01:24:05.653Z,0.26
2022-11-29T01:29:13.138Z,0.23
2022-11-29T01:34:16.681Z,0.16
2022-11-29T01:39:20.119Z,0.16
2022-11-29T01:44:23.174Z,0.13
2022-11-29T01:49:33.842Z,0.15
2022-11-29T01:54:44.627Z,0.20
2022-11-29T01:59:52.645Z,0.22
2022-11-29T02:04:58.565Z,0.23
2022-11-29T02:10:03.358Z,0.19
2022-11-29T02:15:18.853Z,0.14
2022-11-29T02:21:04.425Z,0.10
2022-11-29T02:26:20.279Z,0.11
2022-11-29T02:31:51.557Z,0.11
2022-11-29T02:37:11.757Z,0.12
2022-11-29T02:43:01.089Z,0.15
2022-11-29T02:48:26.221Z,0.13
2022-11-29T02:53:41.671Z,0.11
2022-11-29T02:58:54.886Z,0.11
2022-11-29T03:04:07.044Z,0.10
2022-11-29T03:09:38.701Z,0.06
2022-11-29T03:14:58.062Z,0.09
2022-11-29T03:20:06.874Z,0.12
2022-11-29T03:25:21.449Z,0.18
2022-11-29T03:30:25.077Z,0.09
2022-11-29T03:35:43.965Z,0.14
2022-11-29T03:41:20.442Z,0.19
2022-11-29T03:46:47.367Z,0.25
2022-11-29T03:52:08.854Z,0.17
2022-11-29T03:57:18.216Z,0.12
2022-11-29T04:02:51.225Z,0.06
2022-11-29T04:08:39.351Z,0.17
2022-11-29T04:14:13.515Z,0.17
2022-11-29T04:19:35.393Z,0.22
2022-11-29T04:24:54.758Z,0.21
2022-11-29T04:30:23.621Z,0.15
2022-11-29T04:35:42.839Z,0.05
2022-11-29T04:41:20.196Z,0.01
2022-11-29T04:46:36.291Z,0.05
2022-11-29T04:52:06.348Z,0.01
2022-11-29T04:57:21.682Z,-0.03
2022-11-29T05:02:33.193Z,-0.05
2022-11-29T05:07:46.077Z,-0.11
2022-11-29T05:13:11.287Z,-0.12
2022-11-29T05:18:23.895Z,-0.15
2022-11-29T05:23:40.373Z,-0.18
2022-11-29T05:29:03.681Z,-0.16
2022-11-29T05:34:16.585Z,-0.03
2022-11-29T05:40:03.709Z,0.09
2022-11-29T05:45:37.633Z,0.15
2022-11-29T05:50:48.256Z,0.14
2022-11-29T05:56:33.571Z,0.18
2022-11-29T06:02:06.706Z,0.17
2022-11-29T06:07:24.061Z,0.17
2022-11-29T06:12:31.207Z,0.13
2022-11-29T06:18:06.792Z,0.18
2022-11-29T06:23:35.728Z,0.09
2022-11-29T06:29:13.619Z,0.02
2022-11-29T06:34:38.848Z,-0.07
2022-11-29T06:39:42.605Z,-0.02
2022-11-29T06:44:47.226Z,0.05
2022-11-29T06:49:58.803Z,0.11
2022-11-29T06:55:40.339Z,0.15
2022-11-29T07:00:46.656Z,0.09
2022-11-29T07:05:50.580Z,0.03
2022-11-29T07:10:55.992Z,0.05
2022-11-29T07:16:22.583Z,0.08
2022-11-29T07:21:51.288Z,0.11
2022-11-29T07:27:08.674Z,0.15
2022-11-29T07:32:28.572Z,0.17
2022-11-29T07:37:35.223Z,0.26
2022-11-29T07:43:06.506Z,0.26
2022-11-29T07:48:12.687Z,0.27
2022-11-29T07:53:18.654Z,0.25
2022-11-29T07:58:22.116Z,0.23
2022-11-29T08:03:25.543Z,0.21
2022-11-29T08:08:28.887Z,0.25
2022-11-29T08:13:32.922Z,0.30
2022-11-29T08:18:37.136Z,0.40
2022-11-29T08:23:40.467Z,0.47
2022-11-29T08:28:44.184Z,0.50
2022-11-29T08:33:48.325Z,0.47
2022-11-29T08:38:59.276Z,0.48
2022-11-29T08:44:07.704Z,0.55
2022-11-29T08:49:11.191Z,0.62
2022-11-29T08:54:14.687Z,0.70
2022-11-29T08:59:18.102Z,0.69
2022-11-29T09:04:21.896Z,0.64
2022-11-29T09:09:25.400Z,0.66
2022-11-29T09:14:29.230Z,0.65
2022-11-29T09:19:33.161Z,0.74
2022-11-29T09:24:36.245Z,0.90
2022-11-29T09:29:39.636Z,0.94
2022-11-29T09:34:43.536Z,0.88
2022-11-29T09:39:47.194Z,0.86
2022-11-29T09:45:32.125Z,0.85
2022-11-29T09:50:46.284Z,0.93
2022-11-29T09:56:10.028Z,0.90
2022-11-29T10:01:21.195Z,0.91
2022-11-29T10:06:28.362Z,0.94
2022-11-29T10:12:02.415Z,1.11
2022-11-29T10:17:30.223Z,1.10
2022-11-29T10:22:55.684Z,1.17
2022-11-29T10:27:59.447Z,1.22
2022-11-29T10:33:03.067Z,1.35
2022-11-29T10:38:29.736Z,1.46
2022-11-29T10:43:30.721Z,1.43
2022-11-29T10:48:34.929Z,1.49
2022-11-29T10:53:38.382Z,1.55
2022-11-29T10:59:19.024Z,1.63
2022-11-29T11:04:35.817Z,1.55
2022-11-29T11:09:49.542Z,1.60
2022-11-29T11:15:28.562Z,1.59
2022-11-29T11:20:34.903Z,1.64
2022-11-29T11:25:40.667Z,1.78
2022-11-29T11:31:01.721Z,1.76
2022-11-29T11:36:13.671Z,1.76
2022-11-29T11:41:46.139Z,1.71
2022-11-29T11:46:51.103Z,1.66
2022-11-29T11:51:54.738Z,1.66
2022-11-29T11:56:58.657Z,1.81
2022-11-29T12:02:02.372Z,1.87
2022-11-29T12:07:33.776Z,1.88
2022-11-29T12:12:46.000Z,1.85
2022-11-29T12:18:05.156Z,1.73
2022-11-29T12:23:16.367Z,1.75
2022-11-29T12:28:21.678Z,1.73
2022-11-29T12:33:41.889Z,1.74
2022-11-29T12:39:05.675Z,1.70
2022-11-29T12:44:42.604Z,1.67
2022-11-29T12:50:18.723Z,1.69
2022-11-29T12:55:32.030Z,1.76
2022-11-29T13:01:05.357Z,1.69
2022-11-29T13:06:56.848Z,1.62
2022-11-29T13:12:45.716Z,1.48
2022-11-29T13:18:04.838Z,1.40
2022-11-29T13:23:45.880Z,1.38
2022-11-29T13:28:51.177Z,1.44
2022-11-29T13:34:01.063Z,1.49
2022-11-29T13:39:33.074Z,1.63
2022-11-29T13:45:12.151Z,1.65
2022-11-29T13:50:42.979Z,1.58
2022-11-29T13:56:01.358Z,1.50
2022-11-29T14:01:13.377Z,1.44
2022-11-29T14:06:24.009Z,1.32
2022-11-29T14:11:43.430Z,1.18
2022-11-29T14:17:35.986Z,1.13
2022-11-29T14:23:20.322Z,1.11
2022-11-29T14:28:23.861Z,1.15
2022-11-29T14:33:45.907Z,1.18
2022-11-29T14:39:13.791Z,1.21
2022-11-29T14:44:17.321Z,1.16
2022-11-29T14:49:25.064Z,1.13
2022-11-29T14:54:28.910Z,1.12
2022-11-29T14:59:54.050Z,1.08
2022-11-29T15:04:58.273Z,1.06
2022-11-29T15:10:05.482Z,1.04
2022-11-29T15:15:27.346Z,1.03
2022-11-29T15:20:49.714Z,1.05
2022-11-29T15:25:55.348Z,1.04
2022-11-29T15:31:11.520Z,1.02
2022-11-29T15:36:24.555Z,1.01
2022-11-29T15:41:31.528Z,0.99
2022-11-29T15:46:35.955Z,0.97
2022-11-29T15:51:40.111Z,1.02
2022-11-29T15:56:54.114Z,1.00
2022-11-29T16:02:02.857Z,1.04
2022-11-29T16:07:06.608Z,0.97
2022-11-29T16:12:14.335Z,0.96
2022-11-29T16:17:21.859Z,0.93
2022-11-29T16:22:29.043Z,1.00
2022-11-29T16:27:36.832Z,1.00
2022-11-29T16:32:44.060Z,1.05
2022-11-29T16:37:48.152Z,1.04
2022-11-29T16:43:04.346Z,1.02
2022-11-29T16:48:32.325Z,1.01
2022-11-29T16:53:39.342Z,0.98
2022-11-29T16:59:20.531Z,1.03
2022-11-29T17:04:10.259Z,0.96
2022-11-29T17:09:24.614Z,0.94
2022-11-29T17:14:32.187Z,0.92
2022-11-29T17:19:35.845Z,0.95
2022-11-29T17:24:46.198Z,0.90
2022-11-29T17:29:51.556Z,0.91
2022-11-29T17:34:55.469Z,0.88
2022-11-29T17:39:58.901Z,0.89
2022-11-29T17:45:02.095Z,0.79
2022-11-29T17:50:06.120Z,0.71
2022-11-29T17:55:12.799Z,0.65
2022-11-29T18:00:17.835Z,0.61
2022-11-29T18:05:21.593Z,0.61
2022-11-29T18:10:28.070Z,0.61
2022-11-29T18:15:32.962Z,0.63
2022-11-29T18:20:36.575Z,0.62
2022-11-29T18:25:40.238Z,0.65
2022-11-29T18:30:44.290Z,0.58
2022-11-29T18:35:47.954Z,0.54
2022-11-29T18:40:51.815Z,0.52
2022-11-29T18:45:55.288Z,0.48
2022-11-29T18:51:02.694Z,0.42
2022-11-29T18:56:16.009Z,0.37
2022-11-29T19:01:24.305Z,0.34
2022-11-29T19:06:39.248Z,0.37
2022-11-29T19:11:44.090Z,0.33
2022-11-29T19:16:49.237Z,0.41
2022-11-29T19:21:52.597Z,0.37
2022-11-29T19:26:56.757Z,0.30
2022-11-29T19:32:01.186Z,0.24
2022-11-29T19:37:05.262Z,0.26
2022-11-29T19:42:09.632Z,0.26
2022-11-29T19:47:12.950Z,0.21
2022-11-29T19:52:16.700Z,0.19
2022-11-29T19:57:20.382Z,0.13
2022-11-29T20:02:24.584Z,0.05
2022-11-29T20:07:28.530Z,-0.04
2022-11-29T20:12:34.728Z,0.04
2022-11-29T20:17:39.822Z,0.07
2022-11-29T20:22:45.677Z,0.07
2022-11-29T20:27:49.149Z,-0.01
2022-11-29T20:32:53.255Z,-0.04
2022-11-29T20:38:34.491Z,-0.04
2022-11-29T20:43:55.828Z,-0.03
2022-11-29T20:49:06.046Z,-0.07
2022-11-29T20:54:12.433Z,-0.12
2022-11-29T20:59:16.316Z,-0.11
2022-11-29T21:04:23.597Z,-0.08
2022-11-29T21:09:28.572Z,-0.20
2022-11-29T21:14:32.537Z,-0.36
2022-11-29T21:19:36.517Z,-0.32
2022-11-29T21:25:14.576Z,-0.32
2022-11-29T21:30:21.571Z,-0.26
2022-11-29T21:35:25.375Z,-0.25
2022-11-29T21:40:28.819Z,-0.12
2022-11-29T21:45:32.419Z,0.08
2022-11-29T21:50:36.303Z,0.16
2022-11-29T21:55:39.775Z,0.25
2022-11-29T22:00:44.328Z,0.13
2022-11-29T22:05:48.316Z,-0.21
2022-11-29T22:16:19.784Z,-0.56
2022-11-29T22:21:23.653Z,-0.61
2022-11-29T22:26:29.097Z,-0.54
2022-11-29T22:31:33.247Z,-0.43
2022-11-29T22:36:38.210Z,-0.29
2022-11-29T22:41:42.047Z,-0.39
2022-11-29T22:46:46.112Z,-0.52
2022-11-29T22:51:51.646Z,-0.53
2022-11-29T22:56:55.135Z,-0.48
2022-11-29T23:01:58.618Z,-0.40
2022-11-29T23:07:02.118Z,-0.26
2022-11-29T23:12:06.228Z,-0.26
2022-11-29T23:17:09.810Z,-0.32
2022-11-29T23:22:13.331Z,-0.44
2022-11-29T23:27:16.899Z,-0.52
2022-11-29T23:32:20.566Z,-0.50
2022-11-29T23:37:24.391Z,-0.51
2022-11-29T23:42:27.912Z,-0.53
2022-11-29T23:47:31.401Z,-0.54
2022-11-29T23:52:34.865Z,-0.61
2022-11-29T23:57:38.640Z,-0.63
